Free Trial

Teradata (TDC) Institutional Ownership

$32.20
+0.35 (+1.10%)
(As of 12:03 PM ET)

Institutional Ownership Changes (13F Filings) for Teradata (NYSE:TDC)

Current
Institutional Ownership
Percentage
90.31%
Number of
Institutional Buyers
(last 12 months)
196
Total
Institutional Inflows
(last 12 months)
$658.63M
Number of
Institutional Sellers
(last 12 months)
119
Total
Institutional Outflows
(last 12 months)
$582.32M
Get TDC Insider Trade Alerts

Want to know when executives and insiders are buying or selling Teradata stock? Sign up for InsiderTrades.com's daily newsletter to get the latest insider transactions delivered to your inbox daily.

Skip Chart & View Institutional Buying and Selling Data

TDC Institutional Buying and Selling by Quarter

Teradata Major Shareholders & Ownership History

Reporting DateMajor Shareholder NameShares HeldMarket Value% of PortfolioQuarterly Change in SharesOwnership in CompanyDetails
5/17/2024 Comerica Bank52,044$2.01M0.0%+26.1%0.054%
5/17/2024 Tidal Investments LLC23,620$913K0.0%-35.6%0.024%
5/16/2024 Redwood Investment Management LLC137,328$5.31M0.5%-1.1%0.142%
5/16/2024 California State Teachers Retirement System97,981$3.79M0.0%-7.1%0.101%
5/16/2024 Jacobs Levy Equity Management Inc.310,605$12.01M0.1%+369.0%0.321%
5/15/2024 Public Employees Retirement System of Ohio43,311$1.68M0.0%-9.4%0.045%
5/15/2024 Public Employees Retirement Association of Colorado10,431$403K0.0%-9.8%0.011%
5/15/2024 Price T Rowe Associates Inc. MD449,954$17.40M0.0%-27.4%0.465%
5/15/2024 BOKF NA45,824$1.76M0.0%+2.8%0.047%
5/14/2024 Ariel Investments LLC801,592$31.00M0.3%N/A0.829%
5/14/2024 EntryPoint Capital LLC2,734$106K0.1%N/A0.003%
5/14/2024 Shell Asset Management Co.16,594$642K0.0%-3.4%0.017%
5/14/2024 CANADA LIFE ASSURANCE Co74,755$2.89M0.0%+2.9%0.077%
5/14/2024 American International Group Inc.130,274$5.04M0.0%-2.0%0.135%
5/13/2024 Seven Eight Capital LP23,380$904K0.1%-56.1%0.024%
5/10/2024 Ontario Teachers Pension Plan Board82,330$3.18M0.0%+8.9%0.084%
5/10/2024 Acadian Asset Management LLC116,439$4.50M0.0%-29.8%0.119%
5/10/2024 Vanguard Group Inc.11,841,180$457.90M0.0%+3.3%12.122%
5/10/2024 Mitsubishi UFJ Trust & Banking Corp65,971$2.53M0.0%+3.7%0.068%
5/10/2024 M&G Plc39,191$1.53M0.0%N/A0.040%
5/9/2024 Scout Investments Inc.265,221$10.19M0.3%-69.7%0.272%
5/9/2024 State Board of Administration of Florida Retirement System121,208$4.88M0.0%+4.9%0.124%
5/8/2024 Entropy Technologies LP14,680$568K0.1%N/A0.015%
5/8/2024 ProShare Advisors LLC9,613$372K0.0%+8.6%0.010%
5/8/2024 Russell Investments Group Ltd.125,369$4.85M0.0%+61.5%0.128%
5/8/2024 Qsemble Capital Management LP7,226$279K0.1%N/A0.007%
5/8/2024 Headlands Technologies LLC14,310$553K0.1%-16.7%0.015%
5/7/2024 Sei Investments Co.530,116$20.50M0.0%-3.7%0.543%
5/7/2024 Heartland Advisors Inc.390,429$15.10M0.8%-38.5%0.400%
5/7/2024 Swiss National Bank193,059$7.47M0.0%-1.9%0.198%
5/7/2024 Oppenheimer Asset Management Inc.109,737$4.24M0.1%-14.4%0.112%
5/7/2024 SG Americas Securities LLC26,250$1.02M0.0%-32.8%0.027%
5/6/2024 Quantbot Technologies LP83,471$3.23M0.2%+9,353.1%0.085%
5/6/2024 Texas Permanent School Fund Corp85,594$3.31M0.0%+1.4%0.088%
5/3/2024 Central Pacific Bank Trust Division3,280$126K0.0%N/A0.003%
5/2/2024 Mutual of America Capital Management LLC58,277$2.25M0.0%-3.7%0.060%
5/2/2024 Nordea Investment Management AB220,234$8.61M0.0%-1.5%0.225%
5/1/2024 BNP Paribas Financial Markets79,168$3.06M0.0%+7.6%0.081%
5/1/2024 Mirae Asset Global Investments Co. Ltd.11,407$442K0.0%-74.8%0.012%
5/1/2024 Mission Wealth Management LP25,550$988K0.0%-4.9%0.026%
Biggest Prediction of My 50-Year Career on Wall Street (Ad)

"Bank Runs Will Get Worse," Expert Warns Man who predicted 2023 bank run has warned 8.4 million Americans to get out of U.S. banks immediately. Move your money into a new vehicle 50 years in the making.

Click here to learn more.
5/1/2024 Diversify Advisory Services LLC13,991$537K0.0%N/A0.014%
4/30/2024 Retirement Systems of Alabama514,457$19.89M0.1%+37.2%0.527%
4/30/2024 Norden Group LLC8,616$333K0.0%+71.5%0.009%
4/30/2024 Arkadios Wealth Advisors9,790$379K0.0%N/A0.010%
4/30/2024 Allspring Global Investments Holdings LLC552,387$21.36M0.0%+10.7%0.566%
4/30/2024Commonwealth Equity Services LLC16,391$634K0.0%N/A0.017%
4/29/2024 Principal Financial Group Inc.369,976$14.31M0.0%+1.9%0.379%
4/26/2024 Yousif Capital Management LLC44,464$1.72M0.0%-2.3%0.046%
4/25/2024 New York State Teachers Retirement System136,317$5.27M0.0%-4.4%0.140%
4/25/2024 Horrell Capital Management Inc.160,000$6.19M1.7%+100.0%0.164%
4/25/2024 Cambridge Investment Research Advisors Inc.37,230$1.44M0.0%N/A0.038%
4/24/2024 Assenagon Asset Management S.A.25,839$999K0.0%N/A0.026%
4/23/2024 Louisiana State Employees Retirement System28,100$1.09M0.0%+2.2%0.029%
4/23/2024 Amalgamated Bank63,660$2.46M0.0%-21.7%0.065%
4/23/2024 Fifth Third Bancorp2,727$105K0.0%-34.0%0.003%
4/19/2024 Norden Group LLC112,008$4.33M0.0%+2,129.9%0.115%
4/18/2024 State of Michigan Retirement System24,042$930K0.0%+2.6%0.025%
4/18/2024 Allspring Global Investments Holdings LLC552,387$21.36M0.0%+10.7%0.566%
4/18/2024 Oak Thistle LLC5,373$208K0.2%N/A0.006%
4/15/2024 Sound Income Strategies LLC808$31K0.0%N/A0.001%
4/13/2024 Wallace Advisory Group LLC7,141$276K0.2%+9.1%0.007%
4/11/2024 Tealwood Asset Management Inc.25,043$968K0.4%+21.1%0.026%
4/5/2024 First Hawaiian Bank20,534$794K0.0%-3.4%0.021%
3/29/2024 Kapitalo Investimentos Ltda8,110$353K0.1%+96.8%0.008%
3/11/2024 Vanguard Group Inc.11,463,419$498.77M0.0%-1.8%11.769%
2/28/2024 American International Group Inc.132,980$5.79M0.0%-6.1%0.137%
2/15/2024 Hawk Ridge Capital Management LP169,349$7.37M0.4%N/A0.173%
2/15/2024 Comerica Bank41,288$1.80M0.0%-2.8%0.042%
2/14/2024 Scalar Gauge Management LLC76,000$3.31M3.1%N/A0.078%
2/14/2024 Redwood Investment Management LLC138,867$6.04M0.6%+295.6%0.142%
2/14/2024 Neuberger Berman Group LLC7,492$326K0.0%+6.2%0.008%
2/14/2024 Shell Asset Management Co.17,177$747K0.0%-23.1%0.018%
2/14/2024 Scout Investments Inc.874,636$38.06M1.0%-20.4%0.894%
2/14/2024 Seven Eight Capital LP53,202$2.32M0.3%+209.5%0.054%
2/14/2024 Schroder Investment Management Group352,644$15.34M0.0%-19.0%0.361%
2/13/2024 Vinva Investment Management Ltd8,984$391K0.0%N/A0.009%
2/13/2024 Circumference Group LLC80,000$3.48M2.9%N/A0.082%
2/13/2024 Crossmark Global Holdings Inc.92,511$4.03M0.1%+3.6%0.095%
2/13/2024 Capital International Investors234,529$10.20M0.0%-88.4%0.240%
2/12/2024Treasurer of the State of North Carolina45,436$1.98M0.0%-19.3%0.046%
2/12/2024 Allianz Asset Management GmbH350,946$15.27M0.0%+6.2%0.359%
2/12/2024 Hsbc Holdings PLC162,251$7.06M0.0%+147.5%0.166%
2/9/2024 Intech Investment Management LLC17,935$780K0.0%+283.1%0.018%
2/9/2024 Neuberger Berman Group LLC7,492$326K0.0%+6.2%0.008%
2/9/2024 Commerce Bank83,856$3.65M0.0%+336.9%0.086%
2/9/2024 Ontario Teachers Pension Plan Board75,613$3.29M0.0%+10.8%0.077%
2/9/2024 Franklin Resources Inc.130,094$5.66M0.0%-4.0%0.133%
2/9/2024 Quest Partners LLC6,856$298K0.1%N/A0.007%
2/9/2024 Trexquant Investment LP65,709$2.86M0.1%+45.1%0.067%
2/9/2024 Corient Private Wealth LLC64,963$2.83M0.0%-38.8%0.066%
Log Into Marc's $5,000 System Today (Ad)

New Panic Could Sweep America Mark these words in 2024. Everyone's going to cash… Wall Street legend says: "A little-known vehicle outside of banks could double… triple… or even quadruple your life savings if you know where to find it right now." We urge you to move your cash into this vehicle in 2024.

More here.
2/9/2024 UBS Group AG150,683$6.56M0.0%-13.8%0.154%
2/9/2024 PNC Financial Services Group Inc.7,058$307K0.0%-3.1%0.007%
2/9/2024 Dynamic Technology Lab Private Ltd30,286$1.32M0.1%N/A0.031%
2/9/2024 Norges Bank1,248,719$54.33M0.0%N/A1.277%
2/8/2024 Robeco Institutional Asset Management B.V.11,258$490K0.0%-33.6%0.012%
2/8/2024 Securian Asset Management Inc.8,253$359K0.0%-2.5%0.008%
2/8/2024 Panagora Asset Management Inc.12,171$530K0.0%-90.9%0.012%
2/8/2024 Fiera Capital Corp108,502$4.72M0.0%-0.3%0.111%
2/8/2024 Heartland Advisors Inc.635,023$27.63M1.4%+4.5%0.649%
2/8/2024 Vanguard Personalized Indexing Management LLC9,169$399K0.0%+3.4%0.009%
(Data available from 1/1/2016 forward)

TDC Institutional Ownership - Frequently Asked Questions

Who are the largest shareholders of TDC shares?

During the previous two years, 333 institutional investors and hedge funds held shares of Teradata. The most heavily invested institutionals were BlackRock Inc. ($617.47M), Vanguard Group Inc. ($457.90M), Ameriprise Financial Inc. ($279.91M), Lynrock Lake LP ($157.37M), American Century Companies Inc. ($116.42M), Geode Capital Management LLC ($80.31M), and Dimensional Fund Advisors LP ($68.95M).Learn more on TDC's institutional investors.

What percentage of Teradata stock is owned by institutional investors?

90.31% of Teradata stock is owned by institutional investors. Learn more on TDC's institutional investor holdings.

Which institutional investors have been buying Teradata stock?

Of the 279 institutional investors that purchased Teradata stock in the last 24 months, the following investors and hedge funds have bought the highest volume of shares: Ameriprise Financial Inc. ($1.34M), Los Angeles Capital Management LLC ($1.31M), Norges Bank ($1.25M), Chicago Capital LLC ($1.23M), Victory Capital Management Inc. ($1.09M), Scout Investments Inc. ($1.03M), and Alyeska Investment Group L.P. ($1.02M).

How much institutional buying is happening at Teradata?

Institutional investors have bought a total of 27,920,421 shares in the last 24 months. This purchase volume represents approximately $1.15B in transactions.

Which Teradata major shareholders have been selling company stock?

Of the 173 institutional investors that sold Teradata stock in the last 24 months, the following investors and hedge funds have sold the highest volume of shares: Scout Investments Inc. ($1.94M), Capital International Investors ($1.79M), Ameriprise Financial Inc. ($1.37M), CI Investments Inc. ($1.18M), Fuller & Thaler Asset Management Inc. ($954.91K), Allspring Global Investments Holdings LLC ($928.46K), and Los Angeles Capital Management LLC ($884.05K).

How much institutional selling is happening at Teradata?

Institutional investors have sold a total of 19,062,119 shares in the last 24 months. This volume of shares sold represents approximately $807.80M in transactions.


This page (NYSE:TDC) was last updated on 5/28/2024 by MarketBeat.com Staff

From Our Partners